Campanya meteocatpedra

Dades EMA Santuari de Queralt

?
?
Resum diari 21:00 TU
Dades diàries de l'estació meteorològica
Temperatura mitjana 23.1 °C
Temperatura màxima 30.2 °C 13:08 TU
Temperatura mínima 18.8 °C 21:29 TU
Humitat relativa mitjana 53%
Precipitació acumulada 0.0 mm
Ratxa màxima del vent (10 m) 36.0 km/h - 180º 15:02 TU
Irradiació solar global 18.9 MJ/m2

El tram horari està expressat en Temps Universal (TU). Cal sumar una hora en horari d'hivern i dues en horari d'estiu per passar a l'hora oficial.

Santuari de Queralt

Metadades estació meteorol´gica
Municipi Berga
Comarca Berguedà
Altitud 1167 m
Data alta 23.01.2002
Estat actual Operativa
Dades de període
Període
TU
TM
°C
TX
°C
TN
°C
HRM
%
PPT
mm
VVM (10 m)
km/h
DVM (10 m)
graus
VVX (10 m)
km/h
RS
W/m2
00:00 - 00:30 21.5 21.6 21.3 45 0.0 9.0 210 14.8 0
00:30 - 01:00 21.2 21.3 21.1 46 0.0 5.8 217 11.5 0
01:00 - 01:30 20.8 21.1 20.7 48 0.0 4.7 211 9.0 0
01:30 - 02:00 20.6 20.8 20.4 50 0.0 2.2 204 4.3 0
02:00 - 02:30 20.6 20.8 20.4 52 0.0 4.0 203 5.8 0
02:30 - 03:00 20.3 20.4 20.1 50 0.0 2.5 267 5.8 0
03:00 - 03:30 19.9 20.3 19.6 51 0.0 1.4 153 4.0 0
03:30 - 04:00 19.7 19.9 19.5 52 0.0 0.7 20 2.9 0
04:00 - 04:30 19.8 20.0 19.5 52 0.0 2.5 199 4.0 0
04:30 - 05:00 19.5 19.7 19.2 53 0.0 1.4 197 3.6 0
05:00 - 05:30 19.2 19.3 19.1 53 0.0 1.8 81 4.0 10
05:30 - 06:00 19.6 20.1 19.3 53 0.0 2.5 132 5.4 70
06:00 - 06:30 20.6 21.1 20.1 54 0.0 3.6 169 6.8 126
06:30 - 07:00 19.7 20.1 19.4 55 0.0 4.3 194 7.9 94
07:00 - 07:30 21.8 22.8 20.2 51 0.0 5.8 154 10.4 303
07:30 - 08:00 22.8 23.9 21.9 49 0.0 8.3 152 14.8 449
08:00 - 08:30 23.0 23.7 22.7 48 0.0 6.5 152 13.0 419
08:30 - 09:00 22.3 22.9 21.9 51 0.0 7.2 152 13.7 390
09:00 - 09:30 22.8 23.5 22.1 51 0.0 8.3 144 13.3 399
09:30 - 10:00 23.7 24.1 23.4 51 0.0 9.0 153 19.8 539
10:00 - 10:30 23.5 23.8 23.2 53 0.0 9.0 156 15.5 382
10:30 - 11:00 24.5 26.1 23.2 51 0.0 10.4 157 19.4 714
11:00 - 11:30 26.9 27.4 25.9 47 0.0 12.2 153 19.4 779
11:30 - 12:00 26.5 27.1 25.8 47 0.0 13.3 152 27.0 739
12:00 - 12:30 27.3 28.5 26.6 44 0.0 14.0 152 21.2 834
12:30 - 13:00 29.3 29.8 28.7 40 0.0 15.5 149 22.7 897
13:00 - 13:30 29.2 30.2 27.4 41 0.0 14.8 151 23.4 498
13:30 - 14:00 25.9 27.2 25.3 51 0.0 11.5 142 20.5 193
14:00 - 14:30 26.3 28.2 25.5 51 0.0 7.9 138 18.4 370
14:30 - 15:00 28.1 29.1 26.6 43 0.0 16.9 161 34.6 585
15:00 - 15:30 28.8 29.3 28.4 37 0.0 20.9 170 36.0 537
15:30 - 16:00 27.6 28.3 27.1 36 0.0 16.9 166 33.1 300
16:00 - 16:30 27.9 29.1 27.1 37 0.0 19.4 169 33.1 376
16:30 - 17:00 27.5 28.2 26.8 45 0.0 18.7 163 31.3 289
17:00 - 17:30 25.7 27.1 25.0 53 0.0 15.8 176 30.2 168
17:30 - 18:00 24.6 25.2 23.7 58 0.0 14.0 171 22.3 73
18:00 - 18:30 23.1 23.7 22.5 64 0.0 13.0 167 22.3 21
18:30 - 19:00 22.0 22.5 21.5 69 0.0 11.9 166 19.4 2
19:00 - 19:30 21.4 21.5 21.2 72 0.0 11.5 174 18.0 0
19:30 - 20:00 21.0 21.2 20.7 74 0.0 7.6 172 14.0 0
20:00 - 20:30 20.1 20.6 19.7 78 0.0 6.1 165 9.4 0
20:30 - 21:00 19.5 19.7 19.2 80 0.0 1.4 152 5.4 0
21:00 - 21:30 19.0 19.2 18.8 81 0.0 4.3 120 7.2 0

Les dades en taronja només han passat un control de qualitat automàtic. Resta pendent la seva validació definitiva.